Asuncion, Paraguay

12:26 PM PYST on January 16, 2017 (GMT -0300)
25.26423473430501;-57.59360175740812 | | Change Station

Elev 0 ft 25.26 °S, 57.59 °W | Updated 2 minutes ago

Thunderstorm
Thunderstorm
95.2 °F
Feels Like 105 °F
N
5.8
Wind Variable Wind from West
Gusts 11.7 mph

Today
High -- | Low -- °F
--% Chance of Precip.
Yesterday
High -- | Low -- °F
Precip. -- in
Pressure 29.77 in
Visibility 6.2 miles
Clouds Scattered Clouds 2700 ft
Few 4000 ft
Mostly Cloudy 7000 ft
Heat Index 105 °F
Dew Point 73 °F
Humidity 49%
Rainfall 0.00 in
Snow Depth Not available.
6:14 AM 7:45 PM
Waning Gibbous, 80% visible
METAR SGAS 161500Z 09007KT 040V120 9999 VCTS SCT027 FEW040CB BKN070 26/23 Q1008 RERA
Pressure 29.77 in
Visibility 6.2 miles
Clouds Scattered Clouds 2700 ft
Few 4000 ft
Mostly Cloudy 7000 ft
Heat Index 105 °F
Dew Point 73 °F
Humidity 49%
Rainfall 0.00 in
Snow Depth Not available.
6:14 AM 7:45 PM
Waning Gibbous, 80% visible
METAR SGAS 161500Z 09007KT 040V120 9999 VCTS SCT027 FEW040CB BKN070 26/23 Q1008 RERA

Get Your Daily Forecast Email!

Thanks for signing up!

Be on the lookout for a verification email in your inbox.

You'll start receiving the daily forecast at 8 AM.

×

10-Day Weather Forecast

No radar image for this location.
×

Almanac

Astronomy

Jan. 16, 2017 Rise Set
Actual Time
Civil Twilight
Nautical Twilight
Astronomical Twilight
Moon
Length of Visible Light
Length of Day
Tomorrow will be .
, % of the Moon is Illuminated

Today's Extremes

Country Highs Country Lows

Community

WunderPhotos

Upload Photos

1,962,540 photos uploaded!

WunderBlog® & News

Nearby

Air Quality

  Air Quality AQ Index Pollutant
Not available.

Snow Depth

Station Depth Elevation

Earthquake Activity

City Distance Mag. Time & Date
Minimum magnitude displayed is 2.5.

Coastal Water Temperatures

Place Temperature

Stations

Nearby Weather Stations

Station Location Temp. Windchill Dew Point Humidity Wind Precip. Elev Updated Type